sensor_id;sensor_type;location;lat;lon;timestamp;P1;durP1;ratioP1;P2;durP2;ratioP2
23171;SDS011;11754;42.664;23.594;2022-08-20T00:02:15;7.70;;;6.00;;
23171;SDS011;11754;42.664;23.594;2022-08-20T00:04:40;13.57;;;5.93;;
23171;SDS011;11754;42.664;23.594;2022-08-20T00:07:06;10.98;;;5.80;;
23171;SDS011;11754;42.664;23.594;2022-08-20T00:09:31;8.00;;;5.70;;
23171;SDS011;11754;42.664;23.594;2022-08-20T00:11:58;8.85;;;5.65;;
23171;SDS011;11754;42.664;23.594;2022-08-20T00:14:25;8.63;;;5.63;;
23171;SDS011;11754;42.664;23.594;2022-08-20T00:16:50;10.25;;;5.55;;
23171;SDS011;11754;42.664;23.594;2022-08-20T00:19:16;8.10;;;5.78;;
23171;SDS011;11754;42.664;23.594;2022-08-20T00:21:42;8.80;;;5.47;;
23171;SDS011;11754;42.664;23.594;2022-08-20T00:24:07;7.75;;;6.22;;
23171;SDS011;11754;42.664;23.594;2022-08-20T00:26:33;8.82;;;5.65;;
23171;SDS011;11754;42.664;23.594;2022-08-20T00:28:59;6.20;;;5.45;;
23171;SDS011;11754;42.664;23.594;2022-08-20T00:31:24;10.10;;;5.88;;
23171;SDS011;11754;42.664;23.594;2022-08-20T00:33:50;7.45;;;5.70;;
23171;SDS011;11754;42.664;23.594;2022-08-20T00:36:16;14.45;;;6.07;;
23171;SDS011;11754;42.664;23.594;2022-08-20T00:38:43;8.88;;;5.97;;
23171;SDS011;11754;42.664;23.594;2022-08-20T00:41:12;10.85;;;5.95;;
23171;SDS011;11754;42.664;23.594;2022-08-20T00:44:04;9.30;;;5.95;;
23171;SDS011;11754;42.664;23.594;2022-08-20T00:46:33;8.70;;;6.20;;
23171;SDS011;11754;42.664;23.594;2022-08-20T00:48:59;8.18;;;6.25;;
23171;SDS011;11754;42.664;23.594;2022-08-20T00:51:30;6.93;;;5.95;;
23171;SDS011;11754;42.664;23.594;2022-08-20T00:54:05;8.63;;;5.93;;
23171;SDS011;11754;42.664;23.594;2022-08-20T00:56:35;11.98;;;6.03;;
23171;SDS011;11754;42.664;23.594;2022-08-20T00:59:03;10.38;;;5.60;;
23171;SDS011;11754;42.664;23.594;2022-08-20T01:01:30;9.20;;;6.45;;
23171;SDS011;11754;42.664;23.594;2022-08-20T01:03:58;14.05;;;6.30;;
23171;SDS011;11754;42.664;23.594;2022-08-20T01:06:24;7.35;;;5.80;;
23171;SDS011;11754;42.664;23.594;2022-08-20T01:08:50;8.70;;;6.43;;
23171;SDS011;11754;42.664;23.594;2022-08-20T01:11:16;8.18;;;6.05;;
23171;SDS011;11754;42.664;23.594;2022-08-20T01:13:45;8.23;;;6.30;;
23171;SDS011;11754;42.664;23.594;2022-08-20T01:16:21;9.70;;;5.85;;
23171;SDS011;11754;42.664;23.594;2022-08-20T01:18:51;10.18;;;5.93;;
23171;SDS011;11754;42.664;23.594;2022-08-20T01:21:18;10.15;;;6.20;;
23171;SDS011;11754;42.664;23.594;2022-08-20T01:28:54;11.15;;;6.25;;
23171;SDS011;11754;42.664;23.594;2022-08-20T01:31:26;8.15;;;6.47;;
23171;SDS011;11754;42.664;23.594;2022-08-20T01:33:54;8.88;;;6.32;;
23171;SDS011;11754;42.664;23.594;2022-08-20T01:36:23;11.43;;;7.10;;
23171;SDS011;11754;42.664;23.594;2022-08-20T01:38:50;12.65;;;6.20;;
23171;SDS011;11754;42.664;23.594;2022-08-20T01:41:24;8.57;;;6.65;;
23171;SDS011;11754;42.664;23.594;2022-08-20T01:43:59;8.20;;;6.78;;
23171;SDS011;11754;42.664;23.594;2022-08-20T01:46:25;8.70;;;6.75;;
23171;SDS011;11754;42.664;23.594;2022-08-20T01:48:54;13.80;;;8.02;;
23171;SDS011;11754;42.664;23.594;2022-08-20T01:51:25;10.88;;;7.93;;
23171;SDS011;11754;42.664;23.594;2022-08-20T01:53:54;9.55;;;7.43;;
23171;SDS011;11754;42.664;23.594;2022-08-20T01:56:22;10.07;;;6.53;;
23171;SDS011;11754;42.664;23.594;2022-08-20T01:58:50;9.88;;;6.60;;
23171;SDS011;11754;42.664;23.594;2022-08-20T02:01:18;8.18;;;6.70;;
23171;SDS011;11754;42.664;23.594;2022-08-20T02:04:00;8.98;;;6.68;;
23171;SDS011;11754;42.664;23.594;2022-08-20T02:06:29;11.55;;;6.55;;
23171;SDS011;11754;42.664;23.594;2022-08-20T02:08:57;7.85;;;6.70;;
23171;SDS011;11754;42.664;23.594;2022-08-20T02:11:25;9.30;;;6.43;;
23171;SDS011;11754;42.664;23.594;2022-08-20T02:13:53;8.88;;;6.88;;
23171;SDS011;11754;42.664;23.594;2022-08-20T02:16:20;10.73;;;6.95;;
23171;SDS011;11754;42.664;23.594;2022-08-20T02:18:47;12.63;;;6.85;;
23171;SDS011;11754;42.664;23.594;2022-08-20T02:21:19;10.50;;;6.88;;
23171;SDS011;11754;42.664;23.594;2022-08-20T02:23:47;8.10;;;6.70;;
23171;SDS011;11754;42.664;23.594;2022-08-20T02:26:12;11.85;;;6.40;;
23171;SDS011;11754;42.664;23.594;2022-08-20T02:28:38;14.98;;;6.70;;
23171;SDS011;11754;42.664;23.594;2022-08-20T02:31:03;10.73;;;6.47;;
23171;SDS011;11754;42.664;23.594;2022-08-20T02:33:32;11.75;;;7.30;;
23171;SDS011;11754;42.664;23.594;2022-08-20T02:35:58;9.10;;;6.93;;
23171;SDS011;11754;42.664;23.594;2022-08-20T02:38:23;11.52;;;6.93;;
23171;SDS011;11754;42.664;23.594;2022-08-20T02:40:49;12.85;;;7.13;;
23171;SDS011;11754;42.664;23.594;2022-08-20T02:43:15;16.08;;;6.82;;
23171;SDS011;11754;42.664;23.594;2022-08-20T02:45:43;10.73;;;7.25;;
23171;SDS011;11754;42.664;23.594;2022-08-20T02:48:09;8.52;;;7.40;;
23171;SDS011;11754;42.664;23.594;2022-08-20T02:50:44;9.85;;;7.07;;
23171;SDS011;11754;42.664;23.594;2022-08-20T02:53:11;9.65;;;7.07;;
23171;SDS011;11754;42.664;23.594;2022-08-20T02:55:36;10.57;;;7.22;;
23171;SDS011;11754;42.664;23.594;2022-08-20T02:58:02;11.38;;;7.63;;
23171;SDS011;11754;42.664;23.594;2022-08-20T03:00:28;9.13;;;6.63;;
23171;SDS011;11754;42.664;23.594;2022-08-20T03:02:55;8.57;;;6.93;;
23171;SDS011;11754;42.664;23.594;2022-08-20T03:05:21;13.40;;;7.43;;
23171;SDS011;11754;42.664;23.594;2022-08-20T03:07:47;13.40;;;7.18;;
23171;SDS011;11754;42.664;23.594;2022-08-20T03:10:20;11.10;;;7.00;;
23171;SDS011;11754;42.664;23.594;2022-08-20T03:12:47;15.50;;;7.32;;
23171;SDS011;11754;42.664;23.594;2022-08-20T03:15:12;10.63;;;7.43;;
23171;SDS011;11754;42.664;23.594;2022-08-20T03:17:38;10.15;;;7.63;;
23171;SDS011;11754;42.664;23.594;2022-08-20T03:20:04;8.82;;;6.75;;
23171;SDS011;11754;42.664;23.594;2022-08-20T03:22:31;12.48;;;7.57;;
23171;SDS011;11754;42.664;23.594;2022-08-20T03:24:57;9.02;;;7.30;;
23171;SDS011;11754;42.664;23.594;2022-08-20T03:27:23;8.77;;;7.07;;
23171;SDS011;11754;42.664;23.594;2022-08-20T03:29:48;10.18;;;7.28;;
23171;SDS011;11754;42.664;23.594;2022-08-20T03:32:14;10.00;;;7.13;;
23171;SDS011;11754;42.664;23.594;2022-08-20T03:34:40;11.55;;;7.72;;
23171;SDS011;11754;42.664;23.594;2022-08-20T03:37:05;9.70;;;7.90;;
23171;SDS011;11754;42.664;23.594;2022-08-20T03:39:30;14.98;;;7.95;;
23171;SDS011;11754;42.664;23.594;2022-08-20T03:41:56;9.52;;;7.68;;
23171;SDS011;11754;42.664;23.594;2022-08-20T03:44:21;12.85;;;7.53;;
23171;SDS011;11754;42.664;23.594;2022-08-20T03:46:47;13.45;;;7.65;;
23171;SDS011;11754;42.664;23.594;2022-08-20T03:49:12;14.75;;;7.47;;
23171;SDS011;11754;42.664;23.594;2022-08-20T03:51:38;13.85;;;7.15;;
23171;SDS011;11754;42.664;23.594;2022-08-20T03:54:03;13.35;;;6.90;;
23171;SDS011;11754;42.664;23.594;2022-08-20T03:56:28;12.85;;;7.50;;
23171;SDS011;11754;42.664;23.594;2022-08-20T03:58:54;14.40;;;7.70;;
23171;SDS011;11754;42.664;23.594;2022-08-20T04:01:19;12.70;;;7.00;;
23171;SDS011;11754;42.664;23.594;2022-08-20T04:03:45;15.98;;;7.10;;
23171;SDS011;11754;42.664;23.594;2022-08-20T04:06:11;11.77;;;7.07;;
23171;SDS011;11754;42.664;23.594;2022-08-20T04:08:38;8.10;;;6.68;;
23171;SDS011;11754;42.664;23.594;2022-08-20T04:11:05;12.95;;;7.25;;
23171;SDS011;11754;42.664;23.594;2022-08-20T04:13:30;16.23;;;9.65;;
23171;SDS011;11754;42.664;23.594;2022-08-20T04:15:56;15.40;;;8.50;;
23171;SDS011;11754;42.664;23.594;2022-08-20T04:18:22;17.67;;;8.52;;
23171;SDS011;11754;42.664;23.594;2022-08-20T04:20:50;17.45;;;10.90;;
23171;SDS011;11754;42.664;23.594;2022-08-20T04:23:17;16.63;;;8.90;;
23171;SDS011;11754;42.664;23.594;2022-08-20T04:25:44;10.70;;;7.82;;
23171;SDS011;11754;42.664;23.594;2022-08-20T04:28:12;15.13;;;9.05;;
23171;SDS011;11754;42.664;23.594;2022-08-20T04:30:49;19.25;;;8.75;;
23171;SDS011;11754;42.664;23.594;2022-08-20T04:33:16;18.75;;;9.82;;
23171;SDS011;11754;42.664;23.594;2022-08-20T04:35:42;20.10;;;10.85;;
23171;SDS011;11754;42.664;23.594;2022-08-20T04:38:08;21.50;;;12.30;;
23171;SDS011;11754;42.664;23.594;2022-08-20T04:40:41;20.45;;;11.35;;
23171;SDS011;11754;42.664;23.594;2022-08-20T04:43:29;16.65;;;12.63;;
23171;SDS011;11754;42.664;23.594;2022-08-20T04:45:58;16.15;;;10.68;;
23171;SDS011;11754;42.664;23.594;2022-08-20T04:48:26;20.80;;;12.13;;
23171;SDS011;11754;42.664;23.594;2022-08-20T04:50:53;23.02;;;10.60;;
23171;SDS011;11754;42.664;23.594;2022-08-20T04:53:21;21.77;;;10.40;;
23171;SDS011;11754;42.664;23.594;2022-08-20T04:55:49;21.52;;;9.48;;
23171;SDS011;11754;42.664;23.594;2022-08-20T04:58:17;16.30;;;9.98;;
23171;SDS011;11754;42.664;23.594;2022-08-20T05:00:50;14.73;;;8.07;;
23171;SDS011;11754;42.664;23.594;2022-08-20T05:03:16;18.77;;;8.48;;
23171;SDS011;11754;42.664;23.594;2022-08-20T05:05:43;13.50;;;7.85;;
23171;SDS011;11754;42.664;23.594;2022-08-20T05:08:09;12.02;;;8.30;;
23171;SDS011;11754;42.664;23.594;2022-08-20T05:10:36;12.98;;;8.52;;
23171;SDS011;11754;42.664;23.594;2022-08-20T05:13:03;12.18;;;7.18;;
23171;SDS011;11754;42.664;23.594;2022-08-20T05:15:29;11.40;;;7.63;;
23171;SDS011;11754;42.664;23.594;2022-08-20T05:17:55;18.40;;;7.68;;
23171;SDS011;11754;42.664;23.594;2022-08-20T05:20:24;39.63;;;9.00;;
23171;SDS011;11754;42.664;23.594;2022-08-20T05:22:51;16.70;;;7.95;;
23171;SDS011;11754;42.664;23.594;2022-08-20T05:25:18;12.20;;;7.07;;
23171;SDS011;11754;42.664;23.594;2022-08-20T05:27:45;17.13;;;7.82;;
23171;SDS011;11754;42.664;23.594;2022-08-20T05:30:11;26.70;;;8.80;;
23171;SDS011;11754;42.664;23.594;2022-08-20T05:32:37;18.70;;;8.75;;
23171;SDS011;11754;42.664;23.594;2022-08-20T05:35:04;27.65;;;9.23;;
23171;SDS011;11754;42.664;23.594;2022-08-20T05:37:36;43.58;;;8.85;;
23171;SDS011;11754;42.664;23.594;2022-08-20T05:40:10;19.80;;;7.22;;
23171;SDS011;11754;42.664;23.594;2022-08-20T05:42:38;23.70;;;8.32;;
23171;SDS011;11754;42.664;23.594;2022-08-20T05:45:05;30.67;;;8.30;;
23171;SDS011;11754;42.664;23.594;2022-08-20T05:47:31;21.98;;;7.90;;
23171;SDS011;11754;42.664;23.594;2022-08-20T05:49:57;27.63;;;7.68;;
23171;SDS011;11754;42.664;23.594;2022-08-20T05:52:23;18.92;;;7.32;;
23171;SDS011;11754;42.664;23.594;2022-08-20T05:54:48;12.80;;;7.05;;
23171;SDS011;11754;42.664;23.594;2022-08-20T05:57:17;14.15;;;6.43;;
23171;SDS011;11754;42.664;23.594;2022-08-20T05:59:46;15.50;;;7.22;;
23171;SDS011;11754;42.664;23.594;2022-08-20T06:02:12;9.82;;;6.68;;
23171;SDS011;11754;42.664;23.594;2022-08-20T06:04:56;12.00;;;6.72;;
23171;SDS011;11754;42.664;23.594;2022-08-20T06:07:22;15.10;;;6.78;;
23171;SDS011;11754;42.664;23.594;2022-08-20T06:09:47;14.90;;;6.85;;
23171;SDS011;11754;42.664;23.594;2022-08-20T06:12:13;9.35;;;6.68;;
23171;SDS011;11754;42.664;23.594;2022-08-20T06:14:39;12.68;;;7.47;;
23171;SDS011;11754;42.664;23.594;2022-08-20T06:17:09;10.13;;;6.28;;
23171;SDS011;11754;42.664;23.594;2022-08-20T06:19:37;8.52;;;6.45;;
23171;SDS011;11754;42.664;23.594;2022-08-20T06:22:04;9.15;;;6.40;;
23171;SDS011;11754;42.664;23.594;2022-08-20T06:24:30;7.65;;;6.28;;
23171;SDS011;11754;42.664;23.594;2022-08-20T06:26:56;7.68;;;5.97;;
23171;SDS011;11754;42.664;23.594;2022-08-20T06:29:23;10.02;;;6.18;;
23171;SDS011;11754;42.664;23.594;2022-08-20T06:31:49;15.23;;;6.55;;
23171;SDS011;11754;42.664;23.594;2022-08-20T06:34:15;9.25;;;6.28;;
23171;SDS011;11754;42.664;23.594;2022-08-20T06:36:42;13.25;;;7.32;;
23171;SDS011;11754;42.664;23.594;2022-08-20T06:39:10;8.32;;;5.90;;
23171;SDS011;11754;42.664;23.594;2022-08-20T06:41:37;10.20;;;6.10;;
23171;SDS011;11754;42.664;23.594;2022-08-20T06:44:03;9.10;;;5.88;;
23171;SDS011;11754;42.664;23.594;2022-08-20T06:46:31;8.43;;;6.50;;
23171;SDS011;11754;42.664;23.594;2022-08-20T06:49:00;10.30;;;6.50;;
23171;SDS011;11754;42.664;23.594;2022-08-20T06:51:27;8.23;;;6.25;;
23171;SDS011;11754;42.664;23.594;2022-08-20T06:53:53;7.28;;;5.55;;
23171;SDS011;11754;42.664;23.594;2022-08-20T06:56:18;9.20;;;6.20;;
23171;SDS011;11754;42.664;23.594;2022-08-20T06:58:44;8.93;;;5.90;;
23171;SDS011;11754;42.664;23.594;2022-08-20T07:01:10;10.93;;;5.85;;
23171;SDS011;11754;42.664;23.594;2022-08-20T07:03:39;10.27;;;5.68;;
23171;SDS011;11754;42.664;23.594;2022-08-20T07:06:06;11.95;;;6.00;;
23171;SDS011;11754;42.664;23.594;2022-08-20T07:08:32;13.85;;;6.55;;
23171;SDS011;11754;42.664;23.594;2022-08-20T07:10:58;9.98;;;5.97;;
23171;SDS011;11754;42.664;23.594;2022-08-20T07:13:23;10.80;;;5.40;;
23171;SDS011;11754;42.664;23.594;2022-08-20T07:15:49;9.48;;;5.65;;
23171;SDS011;11754;42.664;23.594;2022-08-20T07:18:14;10.52;;;5.85;;
23171;SDS011;11754;42.664;23.594;2022-08-20T07:20:40;12.38;;;6.00;;
23171;SDS011;11754;42.664;23.594;2022-08-20T07:23:06;11.80;;;5.47;;
23171;SDS011;11754;42.664;23.594;2022-08-20T07:25:32;11.07;;;5.65;;
23171;SDS011;11754;42.664;23.594;2022-08-20T07:28:20;9.45;;;5.65;;
23171;SDS011;11754;42.664;23.594;2022-08-20T07:30:46;10.25;;;5.25;;
23171;SDS011;11754;42.664;23.594;2022-08-20T07:33:33;9.43;;;4.95;;
23171;SDS011;11754;42.664;23.594;2022-08-20T07:36:00;9.55;;;5.07;;
23171;SDS011;11754;42.664;23.594;2022-08-20T07:38:28;6.88;;;4.78;;
23171;SDS011;11754;42.664;23.594;2022-08-20T07:40:59;11.32;;;5.00;;
23171;SDS011;11754;42.664;23.594;2022-08-20T07:43:26;9.95;;;5.10;;
23171;SDS011;11754;42.664;23.594;2022-08-20T07:45:54;9.23;;;4.88;;
23171;SDS011;11754;42.664;23.594;2022-08-20T07:48:22;9.88;;;4.90;;
23171;SDS011;11754;42.664;23.594;2022-08-20T07:50:53;9.20;;;5.00;;
23171;SDS011;11754;42.664;23.594;2022-08-20T07:53:23;6.63;;;4.93;;
23171;SDS011;11754;42.664;23.594;2022-08-20T07:55:49;10.38;;;5.20;;
23171;SDS011;11754;42.664;23.594;2022-08-20T07:58:16;7.60;;;5.20;;
23171;SDS011;11754;42.664;23.594;2022-08-20T08:00:43;8.90;;;4.80;;
23171;SDS011;11754;42.664;23.594;2022-08-20T08:03:09;10.23;;;5.10;;
23171;SDS011;11754;42.664;23.594;2022-08-20T08:05:36;11.07;;;5.18;;
23171;SDS011;11754;42.664;23.594;2022-08-20T08:08:08;10.95;;;5.05;;
23171;SDS011;11754;42.664;23.594;2022-08-20T08:13:03;8.40;;;4.70;;
23171;SDS011;11754;42.664;23.594;2022-08-20T08:15:32;8.63;;;4.78;;
23171;SDS011;11754;42.664;23.594;2022-08-20T08:18:04;8.57;;;4.60;;
23171;SDS011;11754;42.664;23.594;2022-08-20T08:20:35;11.60;;;4.80;;
23171;SDS011;11754;42.664;23.594;2022-08-20T08:23:08;13.23;;;4.93;;
23171;SDS011;11754;42.664;23.594;2022-08-20T08:25:37;8.55;;;4.90;;
23171;SDS011;11754;42.664;23.594;2022-08-20T08:28:03;10.02;;;4.72;;
23171;SDS011;11754;42.664;23.594;2022-08-20T08:30:29;6.38;;;4.63;;
23171;SDS011;11754;42.664;23.594;2022-08-20T08:32:55;5.78;;;4.45;;
23171;SDS011;11754;42.664;23.594;2022-08-20T08:35:39;5.28;;;4.78;;
23171;SDS011;11754;42.664;23.594;2022-08-20T08:38:10;11.07;;;5.35;;
23171;SDS011;11754;42.664;23.594;2022-08-20T08:40:36;7.82;;;4.65;;
23171;SDS011;11754;42.664;23.594;2022-08-20T08:43:02;5.90;;;4.50;;
23171;SDS011;11754;42.664;23.594;2022-08-20T08:45:36;9.25;;;4.72;;
23171;SDS011;11754;42.664;23.594;2022-08-20T08:48:08;7.10;;;4.90;;
23171;SDS011;11754;42.664;23.594;2022-08-20T08:50:35;10.13;;;4.90;;
23171;SDS011;11754;42.664;23.594;2022-08-20T08:53:02;8.32;;;4.50;;
23171;SDS011;11754;42.664;23.594;2022-08-20T08:55:29;11.15;;;4.95;;
23171;SDS011;11754;42.664;23.594;2022-08-20T08:57:56;6.47;;;4.90;;
23171;SDS011;11754;42.664;23.594;2022-08-20T09:00:24;8.35;;;4.53;;
23171;SDS011;11754;42.664;23.594;2022-08-20T09:05:24;9.68;;;4.68;;
23171;SDS011;11754;42.664;23.594;2022-08-20T09:07:55;11.23;;;4.97;;
23171;SDS011;11754;42.664;23.594;2022-08-20T09:10:22;7.90;;;4.32;;
23171;SDS011;11754;42.664;23.594;2022-08-20T09:12:48;6.88;;;4.22;;
23171;SDS011;11754;42.664;23.594;2022-08-20T09:15:13;8.70;;;4.30;;
23171;SDS011;11754;42.664;23.594;2022-08-20T09:17:40;6.13;;;4.45;;
23171;SDS011;11754;42.664;23.594;2022-08-20T09:20:06;9.55;;;4.38;;
23171;SDS011;11754;42.664;23.594;2022-08-20T09:22:34;7.38;;;3.88;;
23171;SDS011;11754;42.664;23.594;2022-08-20T09:24:59;7.53;;;3.65;;
23171;SDS011;11754;42.664;23.594;2022-08-20T09:27:27;9.35;;;4.35;;
23171;SDS011;11754;42.664;23.594;2022-08-20T09:29:52;6.07;;;3.80;;
23171;SDS011;11754;42.664;23.594;2022-08-20T09:32:19;6.63;;;3.72;;
23171;SDS011;11754;42.664;23.594;2022-08-20T09:34:46;3.78;;;3.38;;
23171;SDS011;11754;42.664;23.594;2022-08-20T09:37:15;5.85;;;3.03;;
23171;SDS011;11754;42.664;23.594;2022-08-20T09:39:41;4.75;;;3.30;;
23171;SDS011;11754;42.664;23.594;2022-08-20T09:44:35;7.50;;;3.00;;
23171;SDS011;11754;42.664;23.594;2022-08-20T09:47:01;8.18;;;3.00;;
23171;SDS011;11754;42.664;23.594;2022-08-20T09:49:27;4.78;;;2.80;;
23171;SDS011;11754;42.664;23.594;2022-08-20T09:51:53;8.65;;;3.10;;
23171;SDS011;11754;42.664;23.594;2022-08-20T09:54:19;5.03;;;2.50;;
23171;SDS011;11754;42.664;23.594;2022-08-20T09:56:46;4.20;;;2.60;;
23171;SDS011;11754;42.664;23.594;2022-08-20T09:59:11;4.97;;;2.50;;
23171;SDS011;11754;42.664;23.594;2022-08-20T10:01:40;6.55;;;2.40;;
23171;SDS011;11754;42.664;23.594;2022-08-20T10:04:05;4.45;;;2.10;;
23171;SDS011;11754;42.664;23.594;2022-08-20T10:06:31;5.97;;;2.30;;
23171;SDS011;11754;42.664;23.594;2022-08-20T10:09:03;4.80;;;2.00;;
23171;SDS011;11754;42.664;23.594;2022-08-20T10:11:28;4.82;;;2.33;;
23171;SDS011;11754;42.664;23.594;2022-08-20T10:13:54;6.50;;;2.33;;
23171;SDS011;11754;42.664;23.594;2022-08-20T10:16:19;4.47;;;2.17;;
23171;SDS011;11754;42.664;23.594;2022-08-20T10:18:44;7.83;;;1.90;;
23171;SDS011;11754;42.664;23.594;2022-08-20T10:21:13;2.88;;;1.80;;
23171;SDS011;11754;42.664;23.594;2022-08-20T10:23:38;6.22;;;1.88;;
23171;SDS011;11754;42.664;23.594;2022-08-20T10:26:05;4.80;;;1.80;;
23171;SDS011;11754;42.664;23.594;2022-08-20T10:28:32;6.05;;;1.75;;
23171;SDS011;11754;42.664;23.594;2022-08-20T10:30:57;7.90;;;1.97;;
23171;SDS011;11754;42.664;23.594;2022-08-20T10:33:22;5.53;;;1.83;;
23171;SDS011;11754;42.664;23.594;2022-08-20T10:35:48;7.03;;;1.90;;
23171;SDS011;11754;42.664;23.594;2022-08-20T10:38:13;4.93;;;1.80;;
23171;SDS011;11754;42.664;23.594;2022-08-20T10:40:38;7.93;;;1.67;;
23171;SDS011;11754;42.664;23.594;2022-08-20T10:43:04;5.20;;;1.50;;
23171;SDS011;11754;42.664;23.594;2022-08-20T10:45:29;3.88;;;1.55;;
23171;SDS011;11754;42.664;23.594;2022-08-20T10:47:57;6.00;;;1.50;;
23171;SDS011;11754;42.664;23.594;2022-08-20T10:50:24;8.40;;;1.60;;
23171;SDS011;11754;42.664;23.594;2022-08-20T10:52:49;4.55;;;1.52;;
23171;SDS011;11754;42.664;23.594;2022-08-20T10:55:14;4.80;;;1.50;;
23171;SDS011;11754;42.664;23.594;2022-08-20T10:57:40;4.13;;;1.30;;
23171;SDS011;11754;42.664;23.594;2022-08-20T11:00:06;4.13;;;1.48;;
23171;SDS011;11754;42.664;23.594;2022-08-20T11:02:36;4.63;;;1.40;;
23171;SDS011;11754;42.664;23.594;2022-08-20T11:05:02;3.05;;;1.38;;
23171;SDS011;11754;42.664;23.594;2022-08-20T11:07:28;5.85;;;1.30;;
23171;SDS011;11754;42.664;23.594;2022-08-20T11:09:58;8.80;;;1.55;;
23171;SDS011;11754;42.664;23.594;2022-08-20T11:12:24;2.70;;;1.20;;
23171;SDS011;11754;42.664;23.594;2022-08-20T11:14:50;4.35;;;1.40;;
23171;SDS011;11754;42.664;23.594;2022-08-20T11:17:27;3.42;;;1.30;;
23171;SDS011;11754;42.664;23.594;2022-08-20T11:19:55;4.47;;;1.40;;
23171;SDS011;11754;42.664;23.594;2022-08-20T11:22:21;3.47;;;1.50;;
23171;SDS011;11754;42.664;23.594;2022-08-20T11:24:47;3.83;;;1.50;;
23171;SDS011;11754;42.664;23.594;2022-08-20T11:27:15;6.85;;;1.60;;
23171;SDS011;11754;42.664;23.594;2022-08-20T11:29:45;9.02;;;1.50;;
23171;SDS011;11754;42.664;23.594;2022-08-20T11:32:11;2.78;;;1.20;;
23171;SDS011;11754;42.664;23.594;2022-08-20T11:34:36;5.65;;;1.42;;
23171;SDS011;11754;42.664;23.594;2022-08-20T11:37:02;7.75;;;1.50;;
23171;SDS011;11754;42.664;23.594;2022-08-20T11:39:27;4.28;;;1.33;;
23171;SDS011;11754;42.664;23.594;2022-08-20T11:41:53;6.50;;;1.60;;
23171;SDS011;11754;42.664;23.594;2022-08-20T11:44:18;5.80;;;1.80;;
23171;SDS011;11754;42.664;23.594;2022-08-20T11:46:43;5.68;;;1.75;;
23171;SDS011;11754;42.664;23.594;2022-08-20T11:49:09;8.40;;;2.10;;
23171;SDS011;11754;42.664;23.594;2022-08-20T11:51:34;4.13;;;1.50;;
23171;SDS011;11754;42.664;23.594;2022-08-20T11:54:01;5.45;;;1.80;;
23171;SDS011;11754;42.664;23.594;2022-08-20T11:56:27;4.40;;;1.60;;
23171;SDS011;11754;42.664;23.594;2022-08-20T11:58:53;7.80;;;1.77;;
23171;SDS011;11754;42.664;23.594;2022-08-20T12:01:18;3.55;;;2.00;;
23171;SDS011;11754;42.664;23.594;2022-08-20T12:03:44;4.80;;;1.90;;
23171;SDS011;11754;42.664;23.594;2022-08-20T12:06:09;12.20;;;2.17;;
23171;SDS011;11754;42.664;23.594;2022-08-20T12:08:34;6.35;;;2.17;;
23171;SDS011;11754;42.664;23.594;2022-08-20T12:11:00;5.83;;;2.27;;
23171;SDS011;11754;42.664;23.594;2022-08-20T12:13:27;6.85;;;2.30;;
23171;SDS011;11754;42.664;23.594;2022-08-20T12:15:55;4.55;;;2.33;;
23171;SDS011;11754;42.664;23.594;2022-08-20T12:18:21;5.88;;;2.50;;
23171;SDS011;11754;42.664;23.594;2022-08-20T12:20:47;4.65;;;2.90;;
23171;SDS011;11754;42.664;23.594;2022-08-20T12:23:12;7.05;;;3.10;;
23171;SDS011;11754;42.664;23.594;2022-08-20T12:25:38;7.22;;;3.03;;
23171;SDS011;11754;42.664;23.594;2022-08-20T12:28:03;4.63;;;3.40;;
23171;SDS011;11754;42.664;23.594;2022-08-20T12:30:30;7.45;;;3.90;;
23171;SDS011;11754;42.664;23.594;2022-08-20T12:32:57;7.10;;;4.00;;
23171;SDS011;11754;42.664;23.594;2022-08-20T12:35:23;13.02;;;4.57;;
23171;SDS011;11754;42.664;23.594;2022-08-20T12:37:50;11.38;;;4.40;;
23171;SDS011;11754;42.664;23.594;2022-08-20T12:40:17;9.23;;;4.72;;
23171;SDS011;11754;42.664;23.594;2022-08-20T12:42:51;16.88;;;4.63;;
23171;SDS011;11754;42.664;23.594;2022-08-20T12:45:16;13.93;;;4.95;;
23171;SDS011;11754;42.664;23.594;2022-08-20T12:47:43;10.30;;;5.00;;
23171;SDS011;11754;42.664;23.594;2022-08-20T12:50:12;7.10;;;5.00;;
23171;SDS011;11754;42.664;23.594;2022-08-20T12:52:41;12.25;;;5.30;;
23171;SDS011;11754;42.664;23.594;2022-08-20T12:55:07;8.57;;;5.00;;
23171;SDS011;11754;42.664;23.594;2022-08-20T12:57:37;12.00;;;5.70;;
23171;SDS011;11754;42.664;23.594;2022-08-20T13:00:09;8.13;;;5.70;;
23171;SDS011;11754;42.664;23.594;2022-08-20T13:02:35;9.07;;;5.78;;
23171;SDS011;11754;42.664;23.594;2022-08-20T13:05:02;6.60;;;5.50;;
23171;SDS011;11754;42.664;23.594;2022-08-20T13:07:31;18.42;;;6.45;;
23171;SDS011;11754;42.664;23.594;2022-08-20T13:09:57;45.50;;;8.27;;
23171;SDS011;11754;42.664;23.594;2022-08-20T13:12:23;66.25;;;11.10;;
23171;SDS011;11754;42.664;23.594;2022-08-20T13:14:48;44.75;;;17.38;;
23171;SDS011;11754;42.664;23.594;2022-08-20T13:17:14;24.15;;;11.50;;
23171;SDS011;11754;42.664;23.594;2022-08-20T13:19:41;18.10;;;10.98;;
23171;SDS011;11754;42.664;23.594;2022-08-20T13:22:09;20.42;;;10.82;;
23171;SDS011;11754;42.664;23.594;2022-08-20T13:24:35;19.15;;;10.32;;
23171;SDS011;11754;42.664;23.594;2022-08-20T13:27:11;16.63;;;9.77;;
23171;SDS011;11754;42.664;23.594;2022-08-20T13:29:44;16.13;;;10.40;;
23171;SDS011;11754;42.664;23.594;2022-08-20T13:32:11;15.00;;;10.25;;
23171;SDS011;11754;42.664;23.594;2022-08-20T13:34:37;12.95;;;8.93;;
23171;SDS011;11754;42.664;23.594;2022-08-20T13:37:10;14.05;;;8.65;;
23171;SDS011;11754;42.664;23.594;2022-08-20T13:39:39;13.02;;;10.18;;
23171;SDS011;11754;42.664;23.594;2022-08-20T13:42:06;14.27;;;9.98;;
23171;SDS011;11754;42.664;23.594;2022-08-20T13:44:32;11.75;;;9.43;;
23171;SDS011;11754;42.664;23.594;2022-08-20T13:46:57;14.77;;;8.65;;
23171;SDS011;11754;42.664;23.594;2022-08-20T13:49:23;13.23;;;9.20;;
23171;SDS011;11754;42.664;23.594;2022-08-20T13:51:48;14.32;;;8.77;;
23171;SDS011;11754;42.664;23.594;2022-08-20T13:54:13;14.32;;;9.30;;
23171;SDS011;11754;42.664;23.594;2022-08-20T13:56:39;13.52;;;9.25;;
23171;SDS011;11754;42.664;23.594;2022-08-20T13:59:04;13.65;;;9.00;;
23171;SDS011;11754;42.664;23.594;2022-08-20T14:01:30;23.27;;;9.75;;
23171;SDS011;11754;42.664;23.594;2022-08-20T14:03:55;20.92;;;10.48;;
23171;SDS011;11754;42.664;23.594;2022-08-20T14:06:20;14.75;;;9.07;;
23171;SDS011;11754;42.664;23.594;2022-08-20T14:08:46;10.43;;;8.43;;
23171;SDS011;11754;42.664;23.594;2022-08-20T14:11:11;12.40;;;8.52;;
23171;SDS011;11754;42.664;23.594;2022-08-20T14:13:37;15.60;;;8.05;;
23171;SDS011;11754;42.664;23.594;2022-08-20T14:16:02;10.88;;;8.98;;
23171;SDS011;11754;42.664;23.594;2022-08-20T14:18:28;11.55;;;9.38;;
23171;SDS011;11754;42.664;23.594;2022-08-20T14:20:54;13.48;;;9.57;;
23171;SDS011;11754;42.664;23.594;2022-08-20T14:23:20;11.82;;;8.65;;
23171;SDS011;11754;42.664;23.594;2022-08-20T14:25:46;12.93;;;8.88;;
23171;SDS011;11754;42.664;23.594;2022-08-20T14:28:14;14.88;;;8.93;;
23171;SDS011;11754;42.664;23.594;2022-08-20T14:30:42;18.23;;;9.57;;
23171;SDS011;11754;42.664;23.594;2022-08-20T14:33:07;15.93;;;9.15;;
23171;SDS011;11754;42.664;23.594;2022-08-20T14:35:33;15.65;;;8.88;;
23171;SDS011;11754;42.664;23.594;2022-08-20T14:37:59;11.82;;;8.75;;
23171;SDS011;11754;42.664;23.594;2022-08-20T14:40:25;19.60;;;8.50;;
23171;SDS011;11754;42.664;23.594;2022-08-20T14:42:51;19.38;;;9.70;;